createdAt,value
2023-03-18T00:00:43.553Z,4.93
2023-03-18T00:05:45.533Z,5.55
2023-03-18T00:10:50.863Z,5.45
2023-03-18T00:15:52.235Z,5.57
2023-03-18T00:20:53.990Z,5.25
2023-03-18T00:25:57.466Z,5.80
2023-03-18T00:31:08.946Z,5.80
2023-03-18T00:36:13.672Z,5.45
2023-03-18T00:41:16.031Z,5.15
2023-03-18T00:46:27.450Z,6.30
2023-03-18T00:51:32.259Z,5.85
2023-03-18T00:56:36.222Z,6.20
2023-03-18T01:01:38.955Z,6.35
2023-03-18T01:06:40.564Z,6.63
2023-03-18T01:11:42.027Z,6.32
2023-03-18T01:16:43.557Z,7.13
2023-03-18T01:21:45.000Z,7.38
2023-03-18T01:26:47.003Z,7.22
2023-03-18T01:31:48.749Z,9.73
2023-03-18T01:36:50.200Z,8.65
2023-03-18T01:41:51.924Z,9.13
2023-03-18T01:46:53.935Z,8.32
2023-03-18T01:52:02.779Z,8.27
2023-03-18T01:57:06.879Z,7.43
2023-03-18T02:02:11.386Z,9.00
2023-03-18T02:07:19.677Z,9.77
2023-03-18T02:12:50.776Z,9.48
2023-03-18T02:17:58.840Z,9.07
2023-03-18T02:23:12.285Z,9.65
2023-03-18T02:28:20.177Z,10.32
2023-03-18T02:33:26.131Z,10.43
2023-03-18T02:38:27.493Z,11.13
2023-03-18T02:43:31.835Z,11.15
2023-03-18T02:48:37.577Z,11.85
2023-03-18T02:53:39.262Z,11.70
2023-03-18T02:58:41.761Z,11.60
2023-03-18T03:03:43.806Z,11.25
2023-03-18T03:08:45.304Z,11.95
2023-03-18T03:13:46.815Z,12.23
2023-03-18T03:18:48.200Z,12.85
2023-03-18T03:23:50.085Z,12.35
2023-03-18T03:28:51.610Z,10.88
2023-03-18T03:33:53.195Z,10.85
2023-03-18T03:38:55.390Z,10.93
2023-03-18T03:43:56.860Z,9.95
2023-03-18T03:48:58.240Z,10.05
2023-03-18T03:53:59.626Z,10.55
2023-03-18T03:59:01.423Z,10.13
2023-03-18T04:04:03.967Z,10.80
2023-03-18T04:09:05.718Z,11.32
2023-03-18T04:14:08.008Z,11.18
2023-03-18T04:19:10.052Z,11.20
2023-03-18T04:24:11.640Z,10.82
2023-03-18T04:29:13.252Z,11.57
2023-03-18T04:34:14.674Z,11.75
2023-03-18T04:39:16.121Z,11.10
2023-03-18T04:44:17.483Z,11.40
2023-03-18T04:49:19.648Z,11.93
2023-03-18T04:54:21.502Z,12.30
2023-03-18T04:59:23.011Z,12.00
2023-03-18T05:04:24.349Z,13.30
2023-03-18T05:09:25.732Z,12.32
2023-03-18T05:14:28.816Z,12.07
2023-03-18T05:19:30.513Z,13.00
2023-03-18T05:24:31.878Z,11.68
2023-03-18T05:29:33.357Z,13.10
2023-03-18T05:34:37.551Z,12.80
2023-03-18T05:39:38.945Z,13.45
2023-03-18T05:44:40.725Z,12.60
2023-03-18T05:49:42.333Z,12.93
2023-03-18T05:54:46.993Z,12.70
2023-03-18T05:59:48.585Z,12.98
2023-03-18T06:04:50.005Z,13.13
2023-03-18T06:09:52.209Z,14.00
2023-03-18T06:14:54.682Z,14.15
2023-03-18T06:19:56.872Z,13.43
2023-03-18T06:24:58.725Z,13.60
2023-03-18T06:30:02.927Z,12.90
2023-03-18T06:35:05.265Z,13.13
2023-03-18T06:40:08.186Z,13.00
2023-03-18T06:45:10.095Z,13.18
2023-03-18T06:50:11.795Z,13.88
2023-03-18T06:55:13.197Z,14.48
2023-03-18T07:00:15.177Z,13.98
2023-03-18T07:05:17.178Z,13.75
2023-03-18T07:10:22.552Z,14.50
2023-03-18T07:15:24.400Z,14.80
2023-03-18T07:20:25.842Z,16.27
2023-03-18T07:25:27.181Z,14.45
2023-03-18T07:30:28.811Z,14.63
2023-03-18T07:35:30.417Z,12.35
2023-03-18T07:40:32.371Z,11.15
2023-03-18T07:45:34.615Z,8.23
2023-03-18T07:50:36.428Z,7.88
2023-03-18T07:55:38.491Z,7.10
2023-03-18T08:00:39.862Z,7.15
2023-03-18T08:05:41.246Z,6.28
2023-03-18T08:10:42.893Z,6.65
2023-03-18T08:15:44.448Z,7.03
2023-03-18T08:20:46.010Z,6.18
2023-03-18T08:25:49.612Z,5.53
2023-03-18T08:30:55.954Z,6.65
2023-03-18T08:35:59.272Z,6.03
2023-03-18T08:41:00.961Z,5.47
2023-03-18T08:46:02.623Z,4.88
2023-03-18T08:51:05.339Z,4.63
2023-03-18T08:56:07.641Z,4.63
2023-03-18T09:01:11.711Z,3.92
2023-03-18T09:06:13.530Z,3.47
2023-03-18T09:11:14.905Z,2.75
2023-03-18T09:16:17.372Z,2.35
2023-03-18T09:21:19.105Z,2.33
2023-03-18T09:26:20.725Z,1.83
2023-03-18T09:31:22.186Z,1.10
2023-03-18T09:36:23.842Z,2.22
2023-03-18T09:42:03.404Z,1.50
2023-03-18T09:47:36.179Z,2.42
2023-03-18T09:53:04.086Z,1.27
2023-03-18T09:58:17.956Z,1.17
2023-03-18T10:03:33.755Z,1.20
2023-03-18T10:08:47.792Z,2.03
2023-03-18T10:14:16.525Z,2.58
2023-03-18T10:19:17.986Z,1.58
2023-03-18T10:24:38.329Z,2.20
2023-03-18T10:29:54.636Z,1.73
2023-03-18T10:35:03.880Z,1.98
2023-03-18T10:40:17.642Z,1.60
2023-03-18T10:45:24.092Z,1.98
2023-03-18T10:50:54.492Z,2.17
2023-03-18T10:56:08.378Z,1.50
2023-03-18T11:01:17.141Z,1.92
2023-03-18T11:06:25.202Z,1.13
2023-03-18T11:16:42.469Z,2.05
2023-03-18T11:21:44.884Z,1.05
2023-03-18T11:26:57.206Z,0.88
2023-03-18T11:32:01.219Z,1.08
2023-03-18T11:37:05.780Z,0.80
2023-03-18T11:42:21.721Z,1.45
2023-03-18T11:47:28.558Z,0.90
2023-03-18T11:57:59.195Z,0.70
2023-03-18T12:03:18.559Z,1.20
2023-03-18T12:08:47.858Z,1.20
2023-03-18T12:14:25.720Z,0.75
2023-03-18T12:19:56.024Z,0.82
2023-03-18T12:25:17.469Z,0.95
2023-03-18T12:30:36.632Z,1.10
2023-03-18T12:35:54.443Z,0.95
2023-03-18T12:41:01.842Z,0.60
2023-03-18T12:46:17.260Z,0.50
2023-03-18T12:51:26.294Z,0.70
2023-03-18T12:56:30.093Z,0.98
2023-03-18T13:01:49.234Z,1.13
2023-03-18T13:07:15.697Z,0.70
2023-03-18T13:12:38.730Z,0.70
2023-03-18T13:17:44.569Z,0.90
2023-03-18T13:23:03.796Z,0.50
2023-03-18T13:28:36.570Z,0.68
2023-03-18T13:33:41.226Z,0.60
2023-03-18T13:39:08.344Z,0.73
2023-03-18T13:44:17.323Z,0.40
2023-03-18T13:49:23.811Z,0.55
2023-03-18T13:54:34.841Z,0.40
2023-03-18T13:59:36.169Z,0.65
2023-03-18T14:04:51.335Z,0.50
2023-03-18T14:10:17.304Z,0.60
2023-03-18T14:25:44.597Z,0.60
2023-03-18T14:30:58.412Z,0.50
2023-03-18T14:36:10.230Z,0.60
2023-03-18T14:41:21.313Z,0.50
2023-03-18T14:46:27.142Z,0.70
2023-03-18T14:51:32.218Z,0.50
2023-03-18T14:56:40.720Z,1.35
2023-03-18T15:01:47.965Z,0.60
2023-03-18T15:06:50.759Z,0.50
2023-03-18T15:11:52.422Z,0.60
2023-03-18T15:16:56.449Z,0.70
2023-03-18T15:22:04.409Z,0.80
2023-03-18T15:27:15.185Z,0.80
2023-03-18T15:32:25.937Z,0.65
2023-03-18T15:37:42.474Z,0.50
2023-03-18T15:42:45.432Z,0.70
2023-03-18T15:47:47.846Z,0.88
2023-03-18T15:52:49.288Z,0.60
2023-03-18T15:57:53.319Z,0.60
2023-03-18T16:02:54.790Z,0.70
2023-03-18T16:07:56.884Z,0.50
2023-03-18T16:13:02.138Z,0.60
2023-03-18T16:18:03.481Z,0.90
2023-03-18T16:23:05.548Z,0.82
2023-03-18T16:28:07.757Z,1.60
2023-03-18T16:33:16.547Z,0.60
2023-03-18T16:38:17.968Z,1.20
2023-03-18T16:43:22.132Z,0.82
2023-03-18T16:48:23.681Z,0.90
2023-03-18T16:53:28.207Z,0.70
2023-03-18T16:58:33.725Z,0.80
2023-03-18T17:03:36.124Z,0.57
2023-03-18T17:08:38.308Z,0.80
2023-03-18T17:13:40.206Z,0.73
2023-03-18T17:18:41.553Z,0.85
2023-03-18T17:23:42.928Z,1.35
2023-03-18T17:28:47.512Z,1.00
2023-03-18T17:33:48.821Z,2.15
2023-03-18T17:38:56.427Z,2.28
2023-03-18T17:43:58.056Z,4.22
2023-03-18T17:48:59.468Z,3.38
2023-03-18T17:54:02.160Z,3.47
2023-03-18T17:59:05.883Z,3.17
2023-03-18T18:04:13.914Z,3.50
2023-03-18T18:09:15.488Z,5.10
2023-03-18T18:14:27.124Z,4.03
2023-03-18T18:19:28.861Z,4.10
2023-03-18T18:24:33.154Z,4.35
2023-03-18T18:29:35.133Z,3.15
2023-03-18T18:34:36.683Z,4.03
2023-03-18T18:39:38.012Z,3.92
2023-03-18T18:44:40.142Z,7.40
2023-03-18T18:49:41.812Z,3.45
2023-03-18T18:54:43.250Z,6.75
2023-03-18T18:59:44.576Z,6.00
2023-03-18T19:04:46.464Z,5.72
2023-03-18T19:09:47.828Z,3.20
2023-03-18T19:14:49.209Z,5.93
2023-03-18T19:19:52.693Z,6.57
2023-03-18T19:24:54.135Z,4.18
2023-03-18T19:29:58.434Z,5.45
2023-03-18T19:35:00.178Z,4.40
2023-03-18T19:40:14.509Z,3.45
2023-03-18T19:45:16.698Z,2.78
2023-03-18T19:50:20.983Z,2.85
2023-03-18T19:55:23.751Z,3.47
2023-03-18T20:00:26.051Z,4.35
2023-03-18T20:05:27.630Z,2.45
2023-03-18T20:10:29.845Z,2.78
2023-03-18T20:15:31.583Z,2.88
2023-03-18T20:20:33.485Z,3.83
2023-03-18T20:25:38.974Z,3.78
2023-03-18T20:30:40.889Z,4.63
2023-03-18T20:35:44.542Z,3.53
2023-03-18T20:40:49.318Z,4.20
2023-03-18T20:45:51.836Z,3.45
2023-03-18T20:50:54.896Z,3.53
2023-03-18T20:55:56.428Z,3.85
2023-03-18T21:00:57.902Z,3.85
2023-03-18T21:06:03.382Z,3.80
2023-03-18T21:11:05.272Z,5.40
2023-03-18T21:16:11.968Z,5.45
2023-03-18T21:21:24.864Z,4.50
2023-03-18T21:26:26.590Z,5.22
2023-03-18T21:31:33.030Z,5.53
2023-03-18T21:36:34.436Z,4.47
2023-03-18T21:41:36.207Z,5.50
2023-03-18T21:46:37.606Z,5.47
2023-03-18T21:51:40.319Z,5.28
2023-03-18T21:56:41.843Z,29.23
2023-03-18T22:01:43.220Z,15.20
2023-03-18T22:06:44.596Z,6.78
2023-03-18T22:11:45.995Z,6.30
2023-03-18T22:16:47.379Z,4.65
2023-03-18T22:21:48.726Z,3.92
2023-03-18T22:26:50.391Z,4.15
2023-03-18T22:31:52.032Z,5.45
2023-03-18T22:36:53.342Z,4.15
2023-03-18T22:41:54.780Z,4.25
2023-03-18T22:46:56.356Z,4.20
2023-03-18T22:51:57.736Z,4.72
2023-03-18T22:56:59.058Z,4.57
2023-03-18T23:02:00.455Z,5.22
2023-03-18T23:07:01.872Z,4.53
2023-03-18T23:12:03.381Z,4.45
2023-03-18T23:17:04.763Z,4.70
2023-03-18T23:22:06.445Z,4.50
2023-03-18T23:27:08.133Z,4.82
2023-03-18T23:32:10.546Z,4.05
2023-03-18T23:37:12.738Z,3.95
2023-03-18T23:42:15.418Z,3.90
2023-03-18T23:47:16.946Z,3.72
2023-03-18T23:52:18.282Z,3.97
2023-03-18T23:57:19.652Z,3.30
